Time;durP1;ratioP1;P1;durP2;ratioP2;P2;SDS_P1;SDS_P2;PMS_P1;PMS_P2;Temp;Humidity;BMP_temperature;BMP_pressure;BME280_temperature;BME280_humidity;BME280_pressure;Samples;Min_cycle;Max_cycle;Signal;HPM_P1;HPM_P2
2023/09/11 00:02:06;;;;;;;14.38;12.98;;;18.70;99.90;;;;;;4884950;29;20048;-68
2023/09/11 00:04:38;;;;;;;12.90;11.65;;;18.60;99.90;;;;;;4903354;29;20095;-72
2023/09/11 00:07:09;;;;;;;14.70;12.00;;;18.60;99.90;;;;;;4891526;29;20072;-68
2023/09/11 00:09:41;;;;;;;13.73;12.32;;;18.60;99.90;;;;;;4901675;29;20045;-68
2023/09/11 00:12:13;;;;;;;13.43;12.23;;;18.60;99.90;;;;;;4889579;29;20255;-68
2023/09/11 00:14:45;;;;;;;13.30;12.00;;;18.50;99.90;;;;;;4900629;29;20036;-68
2023/09/11 00:17:17;;;;;;;15.23;12.25;;;18.50;99.90;;;;;;4886539;29;20528;-69
2023/09/11 00:19:48;;;;;;;14.02;12.68;;;18.40;99.90;;;;;;4889175;29;20128;-68
2023/09/11 00:22:15;;;;;;;13.32;11.93;;;18.40;99.90;;;;;;4891923;29;20053;-68
2023/09/11 00:24:47;;;;;;;14.65;11.98;;;18.30;99.90;;;;;;4887131;29;20049;-68
2023/09/11 00:27:19;;;;;;;14.60;13.15;;;18.30;99.90;;;;;;4884177;29;20056;-68
2023/09/11 00:29:51;;;;;;;14.13;12.65;;;18.30;99.90;;;;;;4892506;29;20048;-68
2023/09/11 00:32:23;;;;;;;13.60;12.32;;;18.30;99.90;;;;;;4904429;29;20051;-68
2023/09/11 00:34:55;;;;;;;17.73;13.52;;;18.20;99.90;;;;;;4901191;29;20053;-68
2023/09/11 00:37:27;;;;;;;14.77;12.35;;;18.20;99.90;;;;;;4882676;29;20049;-68
2023/09/11 00:39:59;;;;;;;14.88;13.05;;;18.20;99.90;;;;;;4890651;29;20506;-68
2023/09/11 00:42:31;;;;;;;14.13;12.75;;;18.20;99.90;;;;;;4889687;29;20060;-68
2023/09/11 00:45:03;;;;;;;13.75;12.02;;;18.10;99.90;;;;;;4887931;29;20048;-68
2023/09/11 00:47:35;;;;;;;14.13;12.80;;;18.10;99.90;;;;;;4893075;29;20072;-68
2023/09/11 00:50:10;;;;;;;12.57;11.27;;;18.10;99.90;;;;;;4885071;29;20056;-68
2023/09/11 00:52:42;;;;;;;14.93;11.18;;;18.10;99.90;;;;;;4882043;29;20048;-68
2023/09/11 00:55:09;;;;;;;13.00;11.60;;;18.00;99.90;;;;;;4904520;29;20052;-69
2023/09/11 00:57:36;;;;;;;14.10;12.35;;;18.10;99.90;;;;;;4901090;29;20479;-68
2023/09/11 01:00:09;;;;;;;14.65;13.10;;;18.10;99.90;;;;;;4895653;29;20048;-68
2023/09/11 01:02:41;;;;;;;15.18;13.77;;;18.10;99.90;;;;;;4883185;29;20132;-68
2023/09/11 01:05:13;;;;;;;14.10;11.88;;;18.10;99.90;;;;;;4892042;29;20073;-68
2023/09/11 01:07:45;;;;;;;13.70;12.43;;;18.10;99.90;;;;;;4885796;29;20058;-68
2023/09/11 01:10:17;;;;;;;13.25;11.95;;;18.00;99.90;;;;;;4898675;29;20124;-68
2023/09/11 01:12:49;;;;;;;13.45;12.13;;;18.00;99.90;;;;;;4878804;29;20602;-68
2023/09/11 01:15:27;;;;;;;14.65;13.15;;;18.00;99.90;;;;;;4872388;29;20520;-68
2023/09/11 01:18:13;;;;;;;16.15;12.68;;;18.00;99.90;;;;;;4906135;29;20045;-69
2023/09/11 01:21:06;;;;;;;20.80;18.45;;;17.90;99.90;;;;;;4879332;29;20043;-68
2023/09/11 01:24:15;;;;;;;19.25;17.35;;;17.90;99.90;;;;;;4891252;29;20124;-68
2023/09/11 01:27:09;;;;;;;18.45;16.60;;;17.80;99.90;;;;;;4903450;29;20056;-68
2023/09/11 01:29:40;;;;;;;19.05;15.95;;;17.80;99.90;;;;;;4910522;29;20136;-68
2023/09/11 01:32:13;;;;;;;17.83;16.15;;;17.80;99.90;;;;;;4889960;29;20044;-68
2023/09/11 01:34:45;;;;;;;17.70;15.90;;;17.80;99.90;;;;;;4890072;29;20029;-68
2023/09/11 01:37:17;;;;;;;17.30;15.57;;;17.80;99.90;;;;;;4902856;29;20068;-69
2023/09/11 01:39:49;;;;;;;16.20;14.60;;;17.70;99.90;;;;;;4892947;29;20416;-68
2023/09/11 01:42:24;;;;;;;18.55;16.80;;;17.70;99.90;;;;;;4904403;29;20045;-68
2023/09/11 01:44:57;;;;;;;17.10;15.43;;;17.70;99.90;;;;;;4888669;29;20083;-68
2023/09/11 01:47:30;;;;;;;19.30;17.17;;;17.70;99.90;;;;;;4892335;29;20056;-68
2023/09/11 01:50:04;;;;;;;18.67;16.88;;;17.60;99.90;;;;;;4901666;29;20057;-68
2023/09/11 01:52:33;;;;;;;16.13;14.55;;;17.60;99.90;;;;;;4903754;29;20055;-69
2023/09/11 01:55:05;;;;;;;;;;;17.60;99.90;;;;;;4895646;29;20056;-69
2023/09/11 01:57:37;;;;;;;15.75;14.15;;;17.50;99.90;;;;;;4891186;29;20406;-68
2023/09/11 02:00:11;;;;;;;15.23;13.77;;;17.50;99.90;;;;;;4884824;29;20093;-68
2023/09/11 02:02:39;;;;;;;17.23;13.20;;;17.50;99.90;;;;;;4899407;29;20048;-69
2023/09/11 02:05:11;;;;;;;14.27;12.88;;;17.40;99.90;;;;;;4882603;29;20063;-68
2023/09/11 02:07:38;;;;;;;16.63;13.57;;;17.40;99.90;;;;;;4892697;29;20049;-68
2023/09/11 02:10:10;;;;;;;15.23;13.73;;;17.40;99.90;;;;;;4886500;29;20041;-68
2023/09/11 02:12:42;;;;;;;15.30;13.68;;;17.40;99.90;;;;;;4891201;29;20048;-69
2023/09/11 02:15:14;;;;;;;14.27;12.88;;;17.40;99.90;;;;;;4888714;29;20041;-68
2023/09/11 02:17:46;;;;;;;14.73;13.23;;;17.40;99.90;;;;;;4893652;29;20138;-69
2023/09/11 02:20:18;;;;;;;14.65;13.13;;;17.40;99.90;;;;;;4888798;29;20521;-68
2023/09/11 02:22:50;;;;;;;13.55;12.25;;;17.40;99.90;;;;;;4891427;29;20064;-68
2023/09/11 02:25:22;;;;;;;14.95;13.35;;;17.40;99.90;;;;;;4898460;29;20049;-68
2023/09/11 02:27:54;;;;;;;15.00;13.50;;;17.40;99.90;;;;;;4904430;29;20543;-68
2023/09/11 02:30:26;;;;;;;16.35;13.32;;;17.40;99.90;;;;;;4890172;29;20548;-68
2023/09/11 02:32:52;;;;;;;14.77;13.27;;;17.40;99.90;;;;;;4871813;29;20083;-68
2023/09/11 02:35:24;;;;;;;15.48;13.82;;;17.40;99.90;;;;;;4882866;29;20045;-68
2023/09/11 02:37:51;;;;;;;15.25;13.77;;;17.50;99.90;;;;;;4890750;29;20051;-69
2023/09/11 02:40:23;;;;;;;16.50;14.52;;;17.40;99.90;;;;;;4890365;29;20041;-68
2023/09/11 02:42:55;;;;;;;15.20;13.55;;;17.40;99.90;;;;;;4902363;29;20048;-69
2023/09/11 02:45:27;;;;;;;15.60;14.07;;;17.30;99.90;;;;;;4904383;29;20405;-69
2023/09/11 02:47:54;;;;;;;17.45;15.75;;;17.30;99.90;;;;;;4888379;29;20101;-68
2023/09/11 02:50:26;;;;;;;16.45;14.90;;;17.30;99.90;;;;;;4887927;29;20055;-69
2023/09/11 02:52:58;;;;;;;16.67;15.00;;;17.30;99.90;;;;;;4900914;29;20394;-68
2023/09/11 02:55:30;;;;;;;17.25;15.27;;;17.30;99.90;;;;;;4888016;29;20048;-69
2023/09/11 02:58:02;;;;;;;17.42;15.63;;;17.30;99.90;;;;;;4885305;29;20526;-68
2023/09/11 03:00:37;;;;;;;18.40;15.43;;;17.30;99.90;;;;;;4895649;29;20045;-68
2023/09/11 03:03:09;;;;;;;15.90;14.40;;;17.30;99.90;;;;;;4899496;29;20477;-69
2023/09/11 03:05:41;;;;;;;16.40;14.80;;;17.30;99.90;;;;;;4902195;29;20041;-69
2023/09/11 03:08:08;;;;;;;17.77;15.77;;;17.30;99.90;;;;;;4892386;29;20033;-69
2023/09/11 03:10:40;;;;;;;17.00;15.38;;;17.30;99.90;;;;;;4903088;29;20044;-68
2023/09/11 03:13:07;;;;;;;18.77;16.98;;;17.30;99.90;;;;;;4889564;29;20070;-69
2023/09/11 03:15:38;;;;;;;19.33;16.77;;;17.20;99.90;;;;;;4891431;29;20505;-68
2023/09/11 03:18:11;;;;;;;19.00;15.98;;;17.10;99.90;;;;;;4888468;29;20510;-69
2023/09/11 03:20:38;;;;;;;15.82;14.27;;;17.10;99.90;;;;;;4877513;29;20044;-68
2023/09/11 03:23:10;;;;;;;16.60;15.00;;;17.00;99.90;;;;;;4884777;29;20052;-69
2023/09/11 03:25:37;;;;;;;16.85;15.10;;;16.90;99.90;;;;;;4879320;29;20076;-68
2023/09/11 03:28:09;;;;;;;14.63;12.97;;;17.00;99.90;;;;;;4888784;29;20548;-69
2023/09/11 03:30:41;;;;;;;16.55;14.63;;;16.90;99.90;;;;;;4884764;29;20064;-68
2023/09/11 03:33:14;;;;;;;16.83;14.70;;;17.20;99.90;;;;;;4877803;29;20049;-68
2023/09/11 03:35:46;;;;;;;16.35;13.60;;;17.30;99.90;;;;;;4865496;29;20039;-68
2023/09/11 03:38:18;;;;;;;14.80;13.43;;;17.30;99.90;;;;;;4887392;29;20129;-68
2023/09/11 03:40:50;;;;;;;14.68;13.23;;;17.20;99.90;;;;;;4891951;29;20389;-69
2023/09/11 03:43:17;;;;;;;15.35;13.82;;;17.20;99.90;;;;;;4885275;29;20497;-69
2023/09/11 03:45:49;;;;;;;17.05;13.77;;;17.10;99.90;;;;;;4892947;29;20041;-68
2023/09/11 03:48:21;;;;;;;16.40;14.45;;;17.10;99.90;;;;;;4887774;29;20692;-68
2023/09/11 03:50:53;;;;;;;15.13;12.35;;;17.00;99.90;;;;;;4892565;29;20440;-68
2023/09/11 03:53:25;;;;;;;17.55;13.48;;;16.90;99.90;;;;;;4879927;29;20109;-68
2023/09/11 03:55:58;;;;;;;16.52;13.88;;;16.90;99.90;;;;;;4883018;29;20033;-68
2023/09/11 03:58:30;;;;;;;17.15;13.55;;;16.90;99.90;;;;;;4881385;29;20093;-68
2023/09/11 04:00:56;;;;;;;13.05;11.75;;;16.90;99.90;;;;;;4890883;29;20036;-67
2023/09/11 04:03:28;;;;;;;15.52;13.93;;;16.90;99.90;;;;;;4885368;29;20471;-68
2023/09/11 04:06:00;;;;;;;13.82;12.38;;;16.90;99.90;;;;;;4896179;29;20072;-68
2023/09/11 04:08:27;;;;;;;15.60;13.48;;;16.90;99.90;;;;;;4895468;29;20135;-68
2023/09/11 04:10:54;;;;;;;17.05;13.98;;;16.90;99.90;;;;;;4902617;29;20509;-68
2023/09/11 04:13:26;;;;;;;12.88;11.48;;;16.90;99.90;;;;;;4890048;29;20052;-68
2023/09/11 04:15:58;;;;;;;13.85;12.38;;;16.80;99.90;;;;;;4888803;29;20072;-69
2023/09/11 04:18:30;;;;;;;14.75;13.35;;;16.80;99.90;;;;;;4904085;29;20061;-68
2023/09/11 04:21:05;;;;;;;18.55;13.30;;;16.80;99.90;;;;;;4901107;29;20422;-68
2023/09/11 04:23:37;;;;;;;17.80;12.75;;;16.80;99.90;;;;;;4879946;29;20135;-68
2023/09/11 04:26:09;;;;;;;15.18;12.65;;;16.80;99.90;;;;;;4886174;29;20052;-69
2023/09/11 04:28:41;;;;;;;15.52;12.50;;;16.70;99.90;;;;;;4887018;29;20152;-68
2023/09/11 04:31:13;;;;;;;15.75;12.38;;;16.70;99.90;;;;;;4889125;29;20136;-68
2023/09/11 04:33:45;;;;;;;13.35;12.05;;;16.70;99.90;;;;;;4893858;29;20059;-67
2023/09/11 04:36:17;;;;;;;14.68;13.23;;;16.70;99.90;;;;;;4900898;29;20040;-68
2023/09/11 04:38:49;;;;;;;24.08;13.60;;;16.70;99.90;;;;;;4891711;29;20041;-68
2023/09/11 04:41:16;;;;;;;13.65;12.27;;;16.70;99.90;;;;;;4881395;29;20517;-68
2023/09/11 04:43:44;;;;;;;14.23;11.90;;;16.60;99.90;;;;;;4897963;29;20037;-68
2023/09/11 04:46:16;;;;;;;14.03;12.40;;;16.60;99.90;;;;;;4892632;29;20127;-68
2023/09/11 04:48:49;;;;;;;15.05;13.55;;;16.60;99.90;;;;;;4891938;29;20889;-68
2023/09/11 04:51:21;;;;;;;14.65;12.70;;;16.60;99.90;;;;;;4885953;29;20505;-68
2023/09/11 04:53:48;;;;;;;13.93;12.52;;;16.60;99.90;;;;;;4902544;29;20052;-68
2023/09/11 04:56:20;;;;;;;13.90;12.50;;;16.60;99.90;;;;;;4883088;29;20037;-68
2023/09/11 04:58:47;;;;;;;16.42;14.15;;;16.60;99.90;;;;;;4900934;29;20048;-68
2023/09/11 05:01:14;;;;;;;24.25;13.82;;;16.60;99.90;;;;;;4905307;29;20585;-68
2023/09/11 05:03:48;;;;;;;18.77;13.80;;;16.60;99.90;;;;;;4900941;29;20156;-69
2023/09/11 05:06:20;;;;;;;20.98;13.65;;;16.50;99.90;;;;;;4887110;29;20053;-68
2023/09/11 05:08:47;;;;;;;20.15;13.77;;;16.50;99.90;;;;;;4894631;29;20133;-68
2023/09/11 05:11:19;;;;;;;21.60;13.40;;;16.50;99.90;;;;;;4887592;29;20127;-68
2023/09/11 05:13:51;;;;;;;20.85;13.85;;;16.50;99.90;;;;;;4890436;29;20064;-68
2023/09/11 05:16:23;;;;;;;18.98;13.88;;;16.50;99.90;;;;;;4883702;29;20532;-68
2023/09/11 05:18:55;;;;;;;18.55;13.30;;;16.50;99.90;;;;;;4901858;29;20069;-68
2023/09/11 05:21:27;;;;;;;22.20;13.57;;;16.60;99.90;;;;;;4885881;29;20047;-69
2023/09/11 05:23:59;;;;;;;14.85;12.18;;;16.60;99.90;;;;;;4893344;29;20136;-67
2023/09/11 05:26:32;;;;;;;16.70;12.98;;;16.70;99.90;;;;;;4890609;29;20059;-69
2023/09/11 05:29:04;;;;;;;18.42;12.70;;;16.70;99.90;;;;;;4887397;29;20047;-68
2023/09/11 05:31:36;;;;;;;16.35;12.75;;;16.70;99.90;;;;;;4897297;29;20056;-68
2023/09/11 05:34:03;;;;;;;21.25;16.00;;;16.70;99.90;;;;;;4893033;29;20048;-68
2023/09/11 05:36:35;;;;;;;24.38;17.42;;;16.80;99.90;;;;;;4888566;29;20049;-68
2023/09/11 05:39:08;;;;;;;19.83;17.52;;;16.70;99.90;;;;;;4880958;29;20273;-68
2023/09/11 05:41:35;;;;;;;22.35;18.52;;;16.70;99.90;;;;;;4877715;29;20074;-68
2023/09/11 05:44:03;;;;;;;40.67;18.90;;;16.60;99.90;;;;;;4890726;29;20135;-68
2023/09/11 05:46:35;;;;;;;20.05;17.90;;;16.50;99.90;;;;;;4900242;29;20049;-68
2023/09/11 05:49:07;;;;;;;19.40;17.35;;;16.50;99.90;;;;;;4884976;29;20055;-68
2023/09/11 05:51:39;;;;;;;20.52;18.52;;;16.40;99.90;;;;;;4884312;29;20536;-68
2023/09/11 05:54:11;;;;;;;20.80;18.13;;;16.50;99.90;;;;;;4873450;29;20075;-68
2023/09/11 05:56:43;;;;;;;18.35;16.55;;;16.50;99.90;;;;;;4885449;29;20410;-68
2023/09/11 05:59:18;;;;;;;18.85;17.02;;;16.60;99.90;;;;;;4888581;29;20045;-68
2023/09/11 06:01:50;;;;;;;18.25;16.42;;;16.60;99.90;;;;;;4899683;29;20461;-68
2023/09/11 06:04:22;;;;;;;17.90;16.17;;;16.70;99.90;;;;;;4891290;29;20037;-68
2023/09/11 06:06:49;;;;;;;17.58;15.77;;;16.70;99.90;;;;;;4899059;29;20055;-69
2023/09/11 06:09:16;;;;;;;17.38;15.70;;;16.80;99.90;;;;;;4889381;29;20468;-69
2023/09/11 06:11:48;;;;;;;16.80;14.98;;;16.90;99.90;;;;;;4903896;29;20143;-69
2023/09/11 06:14:19;;;;;;;17.60;15.82;;;16.90;99.90;;;;;;4886836;29;20061;-69
2023/09/11 06:16:51;;;;;;;19.15;15.93;;;17.00;99.90;;;;;;4887933;29;20045;-69
2023/09/11 06:19:23;;;;;;;19.00;15.80;;;17.00;99.90;;;;;;4893872;29;20532;-68
2023/09/11 06:21:55;;;;;;;21.05;15.95;;;17.10;99.90;;;;;;4897039;29;20049;-68
2023/09/11 06:24:27;;;;;;;17.95;14.75;;;17.10;99.90;;;;;;4888286;29;20045;-69
2023/09/11 06:27:05;;;;;;;19.85;13.80;;;17.20;99.90;;;;;;4893803;29;20063;-68
2023/09/11 06:29:37;;;;;;;17.35;14.13;;;17.20;99.90;;;;;;4889206;29;20040;-68
2023/09/11 06:32:04;;;;;;;20.65;14.82;;;17.30;99.90;;;;;;4887852;29;20416;-68
2023/09/11 06:34:36;;;;;;;18.58;16.67;;;17.40;99.90;;;;;;4909848;29;20416;-68
2023/09/11 06:37:11;;;;;;;16.27;14.52;;;17.40;99.90;;;;;;4894298;29;20048;-68
2023/09/11 06:39:38;;;;;;;16.38;14.65;;;17.50;99.90;;;;;;4894036;29;20131;-68
2023/09/11 06:42:22;;;;;;;17.90;15.50;;;17.60;99.90;;;;;;4895820;29;20048;-68
2023/09/11 06:44:50;;;;;;;19.30;14.43;;;17.60;99.90;;;;;;4896246;29;20045;-68
2023/09/11 06:47:18;;;;;;;15.50;13.98;;;17.70;99.90;;;;;;4891932;29;20112;-68
2023/09/11 06:49:50;;;;;;;15.63;14.07;;;17.80;99.90;;;;;;4895119;29;20432;-68
2023/09/11 06:52:18;;;;;;;19.52;15.70;;;17.90;99.90;;;;;;4888703;29;20040;-68
2023/09/11 06:54:46;;;;;;;20.83;18.63;;;17.90;99.90;;;;;;4891949;29;20429;-68
2023/09/11 06:57:18;;;;;;;22.02;19.83;;;18.00;99.90;;;;;;4887999;29;20044;-68
2023/09/11 06:59:52;;;;;;;22.42;20.33;;;18.10;99.90;;;;;;4895826;29;20126;-68
2023/09/11 07:02:19;;;;;;;23.80;21.25;;;18.30;99.90;;;;;;4903016;29;20106;-68
2023/09/11 07:04:51;;;;;;;22.42;20.20;;;18.40;99.90;;;;;;4903120;29;20432;-68
2023/09/11 07:07:18;;;;;;;24.25;21.67;;;18.50;99.90;;;;;;4868048;29;20041;-68
2023/09/11 07:09:51;;;;;;;22.75;20.52;;;18.50;99.90;;;;;;4877737;29;20059;-69
2023/09/11 07:12:22;;;;;;;23.65;21.23;;;18.60;99.90;;;;;;4888323;29;20097;-69
2023/09/11 07:14:55;;;;;;;24.80;21.50;;;18.70;99.90;;;;;;4885117;29;20124;-69
2023/09/11 07:17:27;;;;;;;23.52;21.25;;;18.80;99.90;;;;;;4890906;29;20029;-68
2023/09/11 07:19:58;;;;;;;22.77;18.92;;;18.90;99.90;;;;;;4900965;29;20100;-69
2023/09/11 07:22:31;;;;;;;23.77;20.98;;;19.00;99.90;;;;;;4887940;29;20527;-69
2023/09/11 07:25:04;;;;;;;22.52;20.23;;;19.10;99.90;;;;;;4886521;29;20058;-69
2023/09/11 07:27:33;;;;;;;23.52;21.23;;;19.20;99.90;;;;;;4891121;29;20041;-69
2023/09/11 07:30:08;;;;;;;23.67;19.45;;;19.30;99.90;;;;;;4902276;29;20413;-69
2023/09/11 07:32:41;;;;;;;31.17;20.83;;;19.40;99.90;;;;;;4892962;29;20037;-69
2023/09/11 07:35:12;;;;;;;22.25;20.00;;;19.50;99.90;;;;;;4888585;29;20127;-69
2023/09/11 07:37:39;;;;;;;22.80;20.27;;;19.60;99.90;;;;;;4886659;29;20037;-69
2023/09/11 07:40:11;;;;;;;24.05;19.00;;;19.70;99.90;;;;;;4882313;29;20055;-69
2023/09/11 07:42:38;;;;;;;19.48;17.48;;;19.80;99.90;;;;;;4896084;29;20148;-69
2023/09/11 07:45:06;;;;;;;21.42;19.15;;;19.90;99.90;;;;;;4903775;29;20049;-69
2023/09/11 07:47:38;;;;;;;21.17;19.00;;;20.00;99.90;;;;;;4886281;29;20048;-69
2023/09/11 07:50:09;;;;;;;21.08;18.95;;;20.10;99.90;;;;;;4886513;29;20531;-68
2023/09/11 07:52:41;;;;;;;20.50;18.48;;;20.20;99.90;;;;;;4888681;29;20056;-69
2023/09/11 07:55:08;;;;;;;20.08;17.98;;;20.30;99.90;;;;;;4895746;29;20055;-69
2023/09/11 07:57:35;;;;;;;19.08;17.27;;;20.40;99.90;;;;;;4891477;29;20383;-69
2023/09/11 08:00:08;;;;;;;18.60;16.83;;;20.50;99.90;;;;;;4890808;29;20043;-69
2023/09/11 08:02:36;;;;;;;17.52;15.82;;;20.60;99.90;;;;;;4890558;29;20123;-69
2023/09/11 08:05:08;;;;;;;20.35;18.08;;;20.70;99.90;;;;;;4886958;29;20048;-68
2023/09/11 08:07:41;;;;;;;;;;;20.90;99.90;;;;;;4887985;29;20467;-69
2023/09/11 08:10:14;;;;;;;18.25;16.35;;;21.00;99.90;;;;;;4893126;29;19923;-69
2023/09/11 08:12:46;;;;;;;17.45;15.57;;;21.10;99.90;;;;;;4884372;29;20325;-68
2023/09/11 08:15:18;;;;;;;16.20;14.50;;;21.20;99.90;;;;;;4892828;29;20426;-68
2023/09/11 08:17:44;;;;;;;16.55;14.55;;;21.40;99.90;;;;;;4891000;29;20060;-68
2023/09/11 08:20:17;;;;;;;15.13;13.63;;;21.50;99.90;;;;;;4897561;29;20131;-68
2023/09/11 08:22:49;;;;;;;14.27;12.90;;;21.60;99.90;;;;;;4901657;29;20044;-69
2023/09/11 08:25:21;;;;;;;14.10;12.45;;;21.80;99.90;;;;;;4887786;29;20562;-68
2023/09/11 08:27:52;;;;;;;14.32;12.98;;;21.90;99.90;;;;;;4887038;29;20052;-68
2023/09/11 08:30:24;;;;;;;13.32;12.00;;;22.00;99.90;;;;;;4890774;29;20040;-68
2023/09/11 08:32:58;;;;;;;14.57;13.07;;;22.10;99.90;;;;;;4890164;29;20049;-68
2023/09/11 08:35:25;;;;;;;17.35;11.88;;;22.30;99.90;;;;;;4873994;29;20131;-68
2023/09/11 08:37:51;;;;;;;13.63;12.23;;;22.40;99.90;;;;;;4887937;29;20051;-67
2023/09/11 08:40:29;;;;;;;12.23;10.95;;;22.50;99.90;;;;;;4902557;29;20036;-68
2023/09/11 08:43:02;;;;;;;12.65;10.35;;;22.80;99.90;;;;;;4881957;29;20497;-69
2023/09/11 08:45:34;;;;;;;10.63;9.50;;;22.90;99.90;;;;;;4890321;29;20037;-68
2023/09/11 08:48:15;;;;;;;11.50;9.13;;;23.10;99.90;;;;;;4888098;29;20069;-68
2023/09/11 08:50:54;;;;;;;12.70;10.27;;;23.20;99.90;;;;;;4887350;29;20049;-68
2023/09/11 08:53:30;;;;;;;11.95;10.60;;;23.40;99.90;;;;;;4903136;29;20040;-68
2023/09/11 08:55:58;;;;;;;11.23;9.88;;;23.50;99.90;;;;;;4891107;29;20101;-68
2023/09/11 08:58:32;;;;;;;12.68;10.00;;;23.70;99.90;;;;;;4889799;29;20040;-68
2023/09/11 09:01:04;;;;;;;11.55;10.45;;;23.80;99.90;;;;;;4891751;29;20041;-68
2023/09/11 09:03:39;;;;;;;12.32;9.82;;;24.00;99.90;;;;;;4883280;29;20049;-68
2023/09/11 09:06:11;;;;;;;10.48;9.43;;;24.10;99.90;;;;;;4877403;29;20440;-68
2023/09/11 09:08:44;;;;;;;10.00;9.10;;;24.20;99.90;;;;;;4895572;29;20073;-67
2023/09/11 09:11:16;;;;;;;11.90;10.23;;;24.30;99.90;;;;;;4891353;29;20048;-68
2023/09/11 09:13:48;;;;;;;12.68;10.10;;;24.40;99.90;;;;;;4890471;29;20057;-68
2023/09/11 09:16:20;;;;;;;11.93;10.63;;;24.50;99.90;;;;;;4882483;29;20135;-68
2023/09/11 09:18:49;;;;;;;10.75;9.63;;;24.50;99.90;;;;;;4891339;29;20500;-68
2023/09/11 09:21:25;;;;;;;11.13;10.13;;;24.60;99.90;;;;;;4888633;29;20036;-68
2023/09/11 09:24:08;;;;;;;12.43;10.52;;;24.70;99.90;;;;;;4886768;29;20145;-68
2023/09/11 09:26:57;;;;;;;10.80;9.77;;;24.80;99.90;;;;;;4905203;29;20147;-68
2023/09/11 09:29:24;;;;;;;9.90;9.00;;;24.90;99.90;;;;;;4892852;29;20079;-68
2023/09/11 09:31:51;;;;;;;10.75;9.57;;;25.00;99.90;;;;;;4891740;29;20120;-68
2023/09/11 09:34:18;;;;;;;11.75;10.63;;;25.10;99.90;;;;;;4896944;29;20048;-67
2023/09/11 09:36:49;;;;;;;10.82;9.80;;;25.20;99.90;;;;;;4884677;29;20136;-68
2023/09/11 09:39:27;;;;;;;10.45;9.55;;;25.30;99.90;;;;;;4896167;29;20129;-67
2023/09/11 09:42:01;;;;;;;13.13;9.82;;;25.30;99.90;;;;;;4896873;29;20068;-68
2023/09/11 09:44:37;;;;;;;11.40;10.20;;;25.50;99.90;;;;;;4889387;29;20041;-68
2023/09/11 09:47:09;;;;;;;11.75;10.45;;;25.50;99.90;;;;;;4896294;29;20120;-68
2023/09/11 09:49:44;;;;;;;12.05;10.60;;;25.60;99.90;;;;;;4887015;29;20123;-68
2023/09/11 09:52:11;;;;;;;10.10;9.07;;;25.70;99.90;;;;;;4902925;29;20139;-68
2023/09/11 09:54:56;;;;;;;11.13;9.88;;;25.80;99.90;;;;;;4895276;29;20128;-66
2023/09/11 09:57:29;;;;;;;10.55;9.55;;;25.90;99.90;;;;;;4892700;29;20052;-66
2023/09/11 10:00:02;;;;;;;10.37;9.47;;;26.00;99.90;;;;;;4909036;29;20163;-68
2023/09/11 10:02:35;;;;;;;11.70;10.45;;;26.10;99.90;;;;;;4893378;29;20048;-67
2023/09/11 10:05:08;;;;;;;11.32;10.23;;;26.20;99.90;;;;;;4895991;29;20041;-68
2023/09/11 10:07:45;;;;;;;10.52;9.63;;;26.20;99.90;;;;;;4900128;29;20039;-68
2023/09/11 10:10:23;;;;;;;10.80;9.70;;;26.30;99.90;;;;;;4896539;29;20210;-68
2023/09/11 10:13:07;;;;;;;11.20;10.15;;;26.40;99.90;;;;;;4896940;29;20248;-68
2023/09/11 10:15:41;;;;;;;12.23;10.68;;;26.50;99.90;;;;;;4896609;29;20049;-68
2023/09/11 10:18:13;;;;;;;11.38;10.18;;;26.50;99.90;;;;;;4895989;29;20063;-68
2023/09/11 10:20:45;;;;;;;11.80;10.60;;;26.60;99.90;;;;;;4890328;29;20041;-67
2023/09/11 10:23:17;;;;;;;11.23;10.15;;;26.60;99.90;;;;;;4878702;29;20044;-67
2023/09/11 10:25:56;;;;;;;10.73;9.75;;;26.70;99.90;;;;;;4896144;29;20159;-67
2023/09/11 10:28:35;;;;;;;10.82;9.73;;;26.80;99.90;;;;;;4905748;29;20514;-68
2023/09/11 10:31:10;;;;;;;12.20;10.82;;;26.80;99.90;;;;;;4906941;29;20047;-68
2023/09/11 10:33:46;;;;;;;11.20;9.90;;;26.80;99.90;;;;;;4893545;29;20056;-68
2023/09/11 10:36:22;;;;;;;10.65;9.35;;;26.90;99.90;;;;;;4877290;29;20076;-67
2023/09/11 10:38:57;;;;;;;10.52;9.52;;;26.90;99.90;;;;;;4894421;29;20135;-68
2023/09/11 10:41:30;;;;;;;11.60;9.68;;;27.10;99.90;;;;;;4888704;29;20044;-68
2023/09/11 10:44:02;;;;;;;;;;;27.10;99.90;;;;;;4903603;29;20064;-68
2023/09/11 10:46:36;;;;;;;10.73;9.73;;;27.20;99.90;;;;;;4889824;29;20328;-68
2023/09/11 10:49:16;;;;;;;10.63;9.68;;;27.20;99.90;;;;;;4891514;29;20540;-68
2023/09/11 10:51:49;;;;;;;11.82;10.10;;;27.30;99.90;;;;;;4893118;29;20071;-68
2023/09/11 10:54:22;;;;;;;11.05;10.07;;;27.30;99.90;;;;;;4873235;29;20048;-67
2023/09/11 10:56:56;;;;;;;10.55;9.52;;;27.50;99.90;;;;;;4890106;29;20045;-68
2023/09/11 10:59:29;;;;;;;11.75;10.60;;;27.50;99.90;;;;;;4892633;29;20059;-68
2023/09/11 11:02:02;;;;;;;8.68;7.85;;;27.50;99.90;;;;;;4897288;29;20052;-68
2023/09/11 11:04:34;;;;;;;8.93;8.02;;;27.50;99.90;;;;;;4877987;29;20044;-68
2023/09/11 11:07:08;;;;;;;9.85;7.93;;;27.60;99.90;;;;;;4897078;29;20630;-67
2023/09/11 11:09:41;;;;;;;9.27;8.35;;;27.60;99.90;;;;;;4893687;29;20056;-67
2023/09/11 11:12:18;;;;;;;10.00;8.38;;;27.60;99.90;;;;;;4869812;29;20044;-67
2023/09/11 11:15:20;;;;;;;9.55;8.45;;;27.70;99.90;;;;;;4894271;29;20045;-68
2023/09/11 11:18:15;;;;;;;8.55;7.55;;;27.70;99.90;;;;;;4888225;29;20048;-67
2023/09/11 11:21:04;;;;;;;8.88;8.00;;;27.80;99.90;;;;;;4904887;29;20696;-67
2023/09/11 11:23:55;;;;;;;8.15;7.22;;;27.80;99.90;;;;;;4891980;29;20044;-67
2023/09/11 11:26:30;;;;;;;8.85;8.00;;;27.90;99.90;;;;;;4886102;29;20066;-68
2023/09/11 11:29:03;;;;;;;8.27;7.43;;;28.00;99.90;;;;;;4887417;29;20044;-67
2023/09/11 11:31:36;;;;;;;8.00;7.20;;;28.10;99.90;;;;;;4893131;29;20521;-67
2023/09/11 11:34:04;;;;;;;8.02;7.32;;;28.10;99.90;;;;;;4894260;29;20036;-67
2023/09/11 11:36:38;;;;;;;;;;;28.20;99.90;;;;;;4906546;29;20052;-68
2023/09/11 11:39:06;;;;;;;8.15;7.25;;;28.20;99.90;;;;;;4903834;29;20427;-67
2023/09/11 11:41:36;;;;;;;7.63;6.88;;;28.20;99.90;;;;;;4894591;29;20040;-67
2023/09/11 11:44:08;;;;;;;8.43;7.25;;;28.20;99.90;;;;;;4887028;29;20072;-67
2023/09/11 11:46:41;;;;;;;8.48;7.68;;;28.20;99.90;;;;;;4887733;29;20037;-65
2023/09/11 11:49:18;;;;;;;7.45;6.85;;;28.20;99.90;;;;;;4891582;29;20041;-67
2023/09/11 11:51:50;;;;;;;7.25;6.65;;;28.40;99.90;;;;;;4877353;29;20044;-68
2023/09/11 11:54:24;;;;;;;7.03;6.43;;;28.40;99.90;;;;;;4889062;29;20544;-67
2023/09/11 11:57:00;;;;;;;9.63;7.13;;;28.50;99.90;;;;;;4888618;29;20534;-67
2023/09/11 11:59:37;;;;;;;7.47;6.88;;;28.50;99.90;;;;;;4908440;29;20074;-68
2023/09/11 12:02:04;;;;;;;7.63;6.05;;;28.60;99.90;;;;;;4892311;29;20073;-67
2023/09/11 12:04:42;;;;;;;7.80;6.75;;;28.60;99.90;;;;;;4887891;29;20068;-68
2023/09/11 12:07:09;;;;;;;8.50;7.18;;;28.60;99.90;;;;;;4903256;29;20138;-67
2023/09/11 12:09:41;;;;;;;8.38;6.50;;;28.70;99.90;;;;;;4890889;29;20044;-68
2023/09/11 12:12:09;;;;;;;7.18;6.30;;;28.70;99.90;;;;;;4890749;29;20421;-68
2023/09/11 12:14:41;;;;;;;7.57;6.78;;;28.80;99.90;;;;;;4892379;29;20040;-68
2023/09/11 12:17:13;;;;;;;7.30;6.60;;;28.80;99.90;;;;;;4887475;29;20056;-67
2023/09/11 12:19:45;;;;;;;8.23;6.70;;;28.70;99.90;;;;;;4893668;29;20069;-68
2023/09/11 12:22:13;;;;;;;7.93;6.93;;;28.70;99.90;;;;;;4883169;29;20954;-68
2023/09/11 12:24:39;;;;;;;12.68;7.13;;;28.80;99.90;;;;;;4887635;29;20072;-68
2023/09/11 12:27:07;;;;;;;8.43;7.13;;;28.80;99.90;;;;;;4900708;29;20814;-67
2023/09/11 12:29:34;;;;;;;7.45;6.75;;;28.90;99.90;;;;;;4897592;29;20043;-67
2023/09/11 12:32:06;;;;;;;9.98;7.72;;;29.00;99.90;;;;;;4895162;29;20052;-68
2023/09/11 12:34:44;;;;;;;7.45;6.75;;;29.00;99.90;;;;;;4896567;29;20657;-67
2023/09/11 12:37:11;;;;;;;6.85;6.25;;;29.00;99.90;;;;;;4892748;29;20056;-68
2023/09/11 12:39:44;;;;;;;7.20;6.50;;;29.10;99.90;;;;;;4896565;29;20067;-68
2023/09/11 12:42:15;;;;;;;8.13;6.88;;;29.10;99.90;;;;;;4889002;29;20045;-67
2023/09/11 12:44:48;;;;;;;7.87;6.30;;;29.20;99.90;;;;;;4888674;29;20139;-68
2023/09/11 12:47:15;;;;;;;6.70;5.97;;;29.30;99.90;;;;;;4903460;29;20037;-68
2023/09/11 12:49:47;;;;;;;9.13;6.60;;;29.30;99.90;;;;;;4874864;29;20656;-68
2023/09/11 12:52:21;;;;;;;;;;;29.30;99.90;;;;;;4887086;29;20045;-68
2023/09/11 12:54:53;;;;;;;8.68;6.60;;;29.30;99.90;;;;;;4881452;29;19928;-67
2023/09/11 12:57:26;;;;;;;7.10;6.32;;;29.40;99.90;;;;;;4905171;29;20045;-68
2023/09/11 13:00:01;;;;;;;7.78;7.10;;;29.40;99.90;;;;;;4891306;29;20045;-68